Time;durP1;ratioP1;P1;durP2;ratioP2;P2;SDS_P1;SDS_P2;PMS_P1;PMS_P2;Temp;Humidity;BMP_temperature;BMP_pressure;BME280_temperature;BME280_humidity;BME280_pressure;Samples;Min_cycle;Max_cycle;Signal;HPM_P1;HPM_P2
2022/03/28 00:01:10;;;;;;;20.40;9.13;;;;;;;9.93;90.51;102272.69;4920956;29;20036;-72
2022/03/28 00:03:56;;;;;;;16.27;8.80;;;;;;;9.99;90.95;102278.03;4920829;29;20409;-72
2022/03/28 00:06:42;;;;;;;16.17;9.38;;;;;;;9.91;91.10;102270.94;4907285;29;20039;-73
2022/03/28 00:09:28;;;;;;;16.88;9.10;;;;;;;9.85;91.54;102263.91;4920163;29;20032;-71
2022/03/28 00:12:14;;;;;;;15.70;8.20;;;;;;;10.01;89.59;102270.19;4907105;29;20032;-72
2022/03/28 00:15:01;;;;;;;16.42;8.93;;;;;;;10.03;88.91;102271.06;4906522;29;20436;-72
2022/03/28 00:17:47;;;;;;;19.63;10.25;;;;;;;9.90;89.85;102267.44;4920700;29;20043;-73
2022/03/28 00:20:33;;;;;;;15.95;8.95;;;;;;;9.86;91.14;102264.78;4920597;29;20032;-73
2022/03/28 00:23:20;;;;;;;17.52;8.75;;;;;;;9.91;90.20;102268.31;4919436;29;20028;-73
2022/03/28 00:26:05;;;;;;;17.13;9.60;;;;;;;9.84;90.58;102263.88;4920736;29;20108;-71
2022/03/28 00:28:52;;;;;;;15.45;8.98;;;;;;;9.74;90.99;102268.13;4919258;29;20354;-72
2022/03/28 00:31:37;;;;;;;16.13;9.48;;;;;;;9.97;88.96;102268.41;4920871;29;20450;-72
2022/03/28 00:34:23;;;;;;;17.13;8.55;;;;;;;9.90;87.55;102277.91;4906224;29;20156;-72
2022/03/28 00:37:10;;;;;;;16.52;9.25;;;;;;;10.03;85.71;102266.72;4920748;29;20087;-72
2022/03/28 00:39:56;;;;;;;18.95;9.23;;;;;;;9.99;83.70;102272.78;4920292;29;20449;-72
2022/03/28 00:42:42;;;;;;;14.00;8.88;;;;;;;10.27;81.52;102276.53;4919091;29;20465;-72
2022/03/28 00:45:28;;;;;;;19.90;8.90;;;;;;;10.48;79.25;102268.00;4920052;29;20031;-72
2022/03/28 00:48:14;;;;;;;15.10;7.70;;;;;;;9.68;77.11;102267.19;4919446;29;20103;-71
2022/03/28 00:51:01;;;;;;;11.32;7.53;;;;;;;9.51;75.17;102261.78;4906073;29;20124;-71
2022/03/28 00:53:47;;;;;;;15.18;7.43;;;;;;;9.42;74.95;102266.94;4906129;29;20080;-72
2022/03/28 00:56:33;;;;;;;17.77;8.43;;;;;;;9.29;75.49;102272.00;4919652;29;20032;-72
2022/03/28 00:59:19;;;;;;;15.88;7.03;;;;;;;9.22;76.68;102264.91;4919281;29;20441;-72
2022/03/28 01:02:06;;;;;;;14.73;7.57;;;;;;;9.34;76.43;102265.06;4919763;29;20032;-72
2022/03/28 01:04:52;;;;;;;15.73;7.57;;;;;;;9.73;73.53;102268.16;4919766;29;20068;-72
2022/03/28 01:07:39;;;;;;;17.60;7.55;;;;;;;9.36;73.11;102265.94;4919625;29;20036;-72
2022/03/28 01:10:25;;;;;;;10.73;6.97;;;;;;;9.63;72.23;102264.56;4904817;29;20031;-73
2022/03/28 01:13:11;;;;;;;14.55;6.90;;;;;;;9.34;71.61;102270.28;4922372;29;20462;-72
2022/03/28 01:15:58;;;;;;;10.82;6.78;;;;;;;9.45;70.61;102271.31;4921050;29;20377;-71
2022/03/28 01:18:47;;;;;;;16.58;7.72;;;;;;;9.61;69.74;102278.47;4920318;28;20461;-72
2022/03/28 01:21:33;;;;;;;11.23;7.50;;;;;;;9.35;69.88;102275.56;4918804;29;20028;-71
2022/03/28 01:24:19;;;;;;;14.75;7.00;;;;;;;9.07;68.85;102273.44;4920313;28;20020;-72
2022/03/28 01:27:07;;;;;;;16.42;6.70;;;;;;;8.94;69.09;102270.63;4905784;29;20028;-71
2022/03/28 01:29:52;;;;;;;20.75;7.20;;;;;;;8.94;68.18;102279.38;4919511;29;20099;-72
2022/03/28 01:32:38;;;;;;;15.48;7.15;;;;;;;9.29;67.32;102279.84;4919483;28;20453;-73
2022/03/28 01:35:28;;;;;;;13.68;6.72;;;;;;;9.49;65.19;102280.97;4905513;29;20128;-73
2022/03/28 01:38:17;;;;;;;14.45;6.82;;;;;;;9.57;63.41;102282.78;4919810;29;20032;-73
2022/03/28 01:41:03;;;;;;;16.80;6.90;;;;;;;9.37;63.28;102279.06;4919740;28;20028;-72
2022/03/28 01:43:49;;;;;;;13.57;6.57;;;;;;;9.36;63.28;102281.66;4919395;29;20024;-72
2022/03/28 01:46:45;;;;;;;13.70;6.32;;;;;;;9.38;62.02;102283.44;4919308;29;20016;-72
2022/03/28 01:49:31;;;;;;;13.30;6.70;;;;;;;9.28;62.09;102283.28;4919785;29;20389;-72
2022/03/28 01:52:18;;;;;;;16.27;6.82;;;;;;;9.34;61.53;102281.66;4919600;28;20042;-72
2022/03/28 01:55:05;;;;;;;12.55;6.95;;;;;;;9.11;62.07;102288.31;4919093;29;20032;-73
2022/03/28 01:57:52;;;;;;;11.50;6.63;;;;;;;9.30;61.63;102284.19;4918601;29;20034;-72
2022/03/28 02:00:37;;;;;;;15.20;6.65;;;;;;;9.12;61.68;102300.53;4920309;28;20039;-72
2022/03/28 02:03:23;;;;;;;14.25;6.90;;;;;;;9.02;61.55;102296.03;4905004;29;20098;-72
2022/03/28 02:06:09;;;;;;;16.40;6.97;;;;;;;9.36;60.00;102290.38;4919757;28;20024;-73
2022/03/28 02:08:55;;;;;;;14.32;6.75;;;;;;;9.35;59.12;102295.59;4919058;29;20058;-73
2022/03/28 02:11:41;;;;;;;10.88;6.20;;;;;;;9.47;59.10;102293.13;4906411;29;20063;-73
2022/03/28 02:14:26;;;;;;;13.85;7.20;;;;;;;9.41;59.40;102298.28;4903865;29;20052;-72
2022/03/28 02:17:12;;;;;;;16.13;7.05;;;;;;;9.06;58.77;102296.94;4918864;29;20111;-72
2022/03/28 02:19:58;;;;;;;14.65;6.78;;;;;;;9.05;59.35;102300.44;4905085;29;20036;-72
2022/03/28 02:22:46;;;;;;;13.65;6.60;;;;;;;9.26;58.77;102295.47;4918245;29;20036;-72
2022/03/28 02:25:35;;;;;;;17.25;6.47;;;;;;;9.19;58.50;102306.72;4918987;29;20126;-71
2022/03/28 02:28:21;;;;;;;14.27;6.55;;;;;;;9.01;58.80;102317.78;4918311;29;20106;-72
2022/03/28 02:31:10;;;;;;;14.48;6.28;;;;;;;9.10;58.45;102306.59;4918749;29;20099;-72
2022/03/28 02:33:55;;;;;;;16.83;7.00;;;;;;;8.30;59.53;102310.56;4918267;29;20079;-73
2022/03/28 02:36:41;;;;;;;13.23;6.70;;;;;;;8.55;59.93;102309.22;4918427;29;20020;-72
2022/03/28 02:39:27;;;;;;;12.80;6.70;;;;;;;8.48;59.10;102310.88;4917823;29;20040;-72
2022/03/28 02:42:14;;;;;;;21.65;8.25;;;;;;;8.38;59.74;102305.47;4905458;29;20028;-73
2022/03/28 02:45:00;;;;;;;22.80;8.80;;;;;;;8.27;59.66;102310.53;4919804;29;20361;-72
2022/03/28 02:47:45;;;;;;;22.63;9.90;;;;;;;8.22;59.95;102312.19;4922313;29;20027;-72
2022/03/28 02:50:33;;;;;;;24.10;10.32;;;;;;;8.22;59.94;102313.91;4922430;29;20035;-72
2022/03/28 02:53:19;;;;;;;31.02;10.73;;;;;;;7.95;59.58;102310.75;4921719;29;20044;-72
2022/03/28 02:56:04;;;;;;;23.58;10.60;;;;;;;7.50;62.25;102309.88;4922679;29;20042;-72
2022/03/28 02:58:50;;;;;;;30.00;10.45;;;;;;;7.03;63.86;102308.00;4921564;29;20043;-71
2022/03/28 03:01:36;;;;;;;16.95;9.68;;;;;;;6.92;65.63;102296.47;4908598;29;20074;-73
2022/03/28 03:04:21;;;;;;;24.13;9.48;;;;;;;6.91;66.61;102302.53;4921865;29;20035;-70
2022/03/28 03:07:07;;;;;;;22.50;9.15;;;;;;;7.13;66.83;102305.63;4922314;29;20032;-72
2022/03/28 03:09:53;;;;;;;21.40;9.27;;;;;;;7.01;66.09;102310.56;4920777;29;20083;-72
2022/03/28 03:12:39;;;;;;;21.73;9.15;;;;;;;7.20;66.67;102306.63;4921511;29;20100;-72
2022/03/28 03:15:24;;;;;;;21.27;9.70;;;;;;;7.31;66.91;102310.38;4921213;29;20051;-72
2022/03/28 03:18:10;;;;;;;21.67;8.90;;;;;;;6.83;68.96;102301.47;4921785;29;20036;-72
2022/03/28 03:20:56;;;;;;;24.63;9.20;;;;;;;6.73;70.39;102309.91;4921118;29;20058;-72
2022/03/28 03:23:42;;;;;;;18.95;8.38;;;;;;;6.92;69.28;102304.28;4921793;29;20024;-74
2022/03/28 03:26:28;;;;;;;18.85;7.90;;;;;;;6.91;69.15;102300.78;4921269;29;20057;-72
2022/03/28 03:29:13;;;;;;;14.52;7.13;;;;;;;7.10;68.88;102305.56;4921885;29;20032;-72
2022/03/28 03:31:59;;;;;;;16.05;7.25;;;;;;;7.18;67.32;102297.88;4920163;29;20028;-72
2022/03/28 03:34:45;;;;;;;17.20;7.60;;;;;;;6.91;69.14;102300.78;4907454;29;20032;-72
2022/03/28 03:37:31;;;;;;;15.65;6.82;;;;;;;7.00;67.71;102295.78;4922147;29;20043;-72
2022/03/28 03:40:16;;;;;;;20.85;6.97;;;;;;;6.71;69.27;102294.22;4920695;29;20042;-73
2022/03/28 03:43:02;;;;;;;17.20;7.03;;;;;;;6.78;68.18;102293.53;4921151;29;20361;-72
2022/03/28 03:45:48;;;;;;;16.83;7.60;;;;;;;6.84;68.96;102311.03;4921907;29;20051;-71
2022/03/28 03:48:34;;;;;;;19.65;7.47;;;;;;;7.16;67.16;102303.06;4914446;29;20087;-71
2022/03/28 03:51:20;;;;;;;19.42;7.45;;;;;;;6.90;66.32;102301.63;4921634;29;20036;-72
2022/03/28 03:54:06;;;;;;;22.73;8.30;;;;;;;6.93;65.40;102295.59;4921401;29;20024;-71
2022/03/28 03:56:52;;;;;;;16.20;7.35;;;;;;;7.02;65.83;102294.09;4919916;29;20418;-72
2022/03/28 03:59:38;;;;;;;23.20;9.75;;;;;;;6.73;66.86;102305.59;4921066;29;20028;-71
2022/03/28 04:02:23;;;;;;;25.02;9.48;;;;;;;7.12;65.50;102305.59;4920761;29;20028;-72
2022/03/28 04:05:09;;;;;;;29.85;10.13;;;;;;;7.09;65.51;102302.91;4905993;29;20020;-72
2022/03/28 04:07:55;;;;;;;25.88;8.77;;;;;;;6.79;66.45;102310.06;4920473;29;20028;-71
2022/03/28 04:10:42;;;;;;;18.75;8.63;;;;;;;7.12;65.53;102309.06;4919584;29;20038;-70
2022/03/28 04:13:28;;;;;;;30.08;9.82;;;;;;;7.15;65.50;102310.88;4919502;29;20059;-72
2022/03/28 04:16:14;;;;;;;29.80;14.82;;;;;;;6.97;65.43;102308.75;4919912;29;20100;-70
2022/03/28 04:19:02;;;;;;;36.78;15.77;;;;;;;7.05;65.70;102311.50;4920928;29;20080;-71
2022/03/28 04:21:48;;;;;;;44.40;15.77;;;;;;;6.71;66.57;102312.47;4920029;29;20043;-72
2022/03/28 04:24:34;;;;;;;27.63;12.77;;;;;;;7.10;65.97;102313.38;4920029;29;20358;-71
2022/03/28 04:27:19;;;;;;;30.80;11.57;;;;;;;6.98;65.83;102309.59;4920722;29;20028;-71
2022/03/28 04:30:08;;;;;;;29.48;12.43;;;;;;;6.66;66.04;102313.19;4920068;29;20063;-72
2022/03/28 04:32:54;;;;;;;28.70;13.50;;;;;;;7.11;65.31;102301.22;4906060;29;20087;-72
2022/03/28 04:35:41;;;;;;;35.05;12.48;;;;;;;7.05;64.33;102314.13;4906871;29;20123;-73
2022/03/28 04:38:27;;;;;;;29.20;10.68;;;;;;;6.95;64.80;102310.41;4919811;29;20043;-72
2022/03/28 04:41:13;;;;;;;38.95;12.13;;;;;;;7.19;64.28;102316.16;4919527;29;20060;-73
2022/03/28 04:43:59;;;;;;;29.70;11.35;;;;;;;7.07;64.26;102323.72;4919746;29;20028;-72
2022/03/28 04:46:45;;;;;;;35.03;14.57;;;;;;;7.09;65.14;102315.94;4919445;29;20038;-72
2022/03/28 04:49:30;;;;;;;31.60;11.75;;;;;;;6.95;64.20;102326.06;4906728;29;20027;-73
2022/03/28 04:52:17;;;;;;;39.90;14.38;;;;;;;6.94;65.33;102326.91;4919315;29;20457;-71
2022/03/28 04:55:04;;;;;;;28.58;11.38;;;;;;;6.85;65.00;102328.41;4919765;29;20437;-72
2022/03/28 04:57:50;;;;;;;25.58;11.40;;;;;;;7.02;63.09;102334.88;4919472;29;20076;-71
2022/03/28 05:00:36;;;;;;;21.80;10.50;;;;;;;7.29;62.11;102323.34;4919854;29;20035;-72
2022/03/28 05:03:22;;;;;;;24.50;9.80;;;;;;;7.26;60.67;102320.69;4919291;29;20430;-71
2022/03/28 05:06:08;;;;;;;25.63;8.77;;;;;;;7.29;60.58;102328.56;4906116;29;20032;-72
2022/03/28 05:08:54;;;;;;;24.88;8.85;;;;;;;7.14;61.14;102315.19;4919309;29;20051;-74
2022/03/28 05:11:40;;;;;;;24.75;9.20;;;;;;;7.62;60.28;102318.84;4919655;29;20456;-71
2022/03/28 05:14:25;;;;;;;36.60;19.83;;;;;;;7.75;58.98;102318.22;4919549;29;20132;-72
2022/03/28 05:17:11;;;;;;;22.10;9.35;;;;;;;7.95;58.32;102323.78;4919066;29;20035;-73
2022/03/28 05:19:59;;;;;;;34.42;9.27;;;;;;;7.80;58.56;102318.31;4919776;29;20059;-73
2022/03/28 05:22:45;;;;;;;26.13;9.43;;;;;;;8.25;57.41;102325.28;4919812;28;20039;-72
2022/03/28 05:25:30;;;;;;;25.27;9.15;;;;;;;7.98;56.92;102326.47;4919506;29;20038;-73
2022/03/28 05:28:16;;;;;;;21.85;9.65;;;;;;;7.68;57.96;102320.69;4919869;28;20251;-73
2022/03/28 05:31:02;;;;;;;34.20;10.27;;;;;;;8.43;57.27;102327.31;4920336;28;20039;-72
2022/03/28 05:33:48;;;;;;;24.23;10.60;;;;;;;8.48;54.61;102320.47;4918668;29;20028;-72
2022/03/28 05:36:34;;;;;;;35.95;15.30;;;;;;;8.49;55.19;102325.69;4905102;29;20429;-72
2022/03/28 05:39:20;;;;;;;27.98;10.85;;;;;;;8.67;54.86;102322.50;4919231;29;20050;-72
2022/03/28 05:42:07;;;;;;;24.88;10.30;;;;;;;8.78;54.17;102320.94;4918823;29;20036;-72
2022/03/28 05:44:53;;;;;;;22.52;9.50;;;;;;;8.98;54.01;102324.72;4918715;29;20039;-72
2022/03/28 05:47:39;;;;;;;23.20;8.90;;;;;;;9.36;52.71;102307.78;4919119;29;20111;-72
2022/03/28 05:50:25;;;;;;;21.80;9.18;;;;;;;9.11;53.69;102321.41;4919304;29;20469;-73
2022/03/28 05:53:13;;;;;;;23.60;9.32;;;;;;;9.54;52.64;102315.91;4920038;28;20047;-73
2022/03/28 05:55:59;;;;;;;19.85;8.90;;;;;;;9.70;51.73;102308.22;4918691;29;20115;-72
2022/03/28 05:58:44;;;;;;;23.67;9.02;;;;;;;9.91;51.84;102315.44;4919624;28;20373;-72
2022/03/28 06:01:30;;;;;;;23.83;7.88;;;;;;;9.93;50.97;102318.97;4918597;29;20032;-72
2022/03/28 06:04:16;;;;;;;41.97;19.45;;;;;;;10.13;50.35;102309.63;4918343;29;20406;-72
2022/03/28 06:07:02;;;;;;;26.60;9.45;;;;;;;10.52;50.47;102312.56;4918957;29;20028;-71
2022/03/28 06:09:48;;;;;;;32.50;10.63;;;;;;;10.26;50.37;102311.47;4919581;28;20039;-71
2022/03/28 06:12:34;;;;;;;15.82;8.07;;;;;;;10.46;50.03;102309.91;4918422;29;20024;-73
2022/03/28 06:15:20;;;;;;;24.30;8.88;;;;;;;10.83;49.93;102311.94;4918852;29;20063;-72
2022/03/28 06:18:06;;;;;;;19.15;8.02;;;;;;;10.82;49.51;102310.19;4923629;28;20075;-71
2022/03/28 06:20:52;;;;;;;22.45;9.20;;;;;;;10.86;50.24;102311.97;4925171;29;20541;-72
2022/03/28 06:23:38;;;;;;;24.52;8.57;;;;;;;10.83;49.96;102308.41;4922358;29;20044;-72
2022/03/28 06:26:23;;;;;;;25.50;8.75;;;;;;;10.96;50.72;102311.13;4923080;29;20036;-72
2022/03/28 06:29:10;;;;;;;22.88;7.63;;;;;;;11.17;50.84;102316.50;4922177;29;20024;-72
2022/03/28 06:31:57;;;;;;;21.48;8.95;;;;;;;11.56;50.30;102311.44;4909306;29;20032;-73
2022/03/28 06:34:43;;;;;;;18.38;7.60;;;;;;;11.95;49.93;102314.25;4922343;29;20094;-73
2022/03/28 06:37:28;;;;;;;20.05;7.78;;;;;;;11.84;50.75;102320.31;4920922;29;20099;-72
2022/03/28 06:40:14;;;;;;;15.52;7.30;;;;;;;12.13;50.25;102314.25;4922988;28;20122;-71
2022/03/28 06:43:00;;;;;;;11.50;7.22;;;;;;;11.97;50.61;102312.47;4908813;29;20024;-72
2022/03/28 06:45:46;;;;;;;17.45;10.07;;;;;;;12.36;50.50;102309.91;4923064;28;20043;-72
2022/03/28 06:48:32;;;;;;;22.20;8.70;;;;;;;12.53;50.68;102310.78;4908373;29;20028;-72
2022/03/28 06:51:19;;;;;;;17.70;7.85;;;;;;;12.51;50.86;102315.19;4921629;29;20020;-74
2022/03/28 06:54:07;;;;;;;21.95;8.30;;;;;;;12.64;51.36;102308.16;4922119;29;20032;-72
2022/03/28 06:56:53;;;;;;;17.42;7.93;;;;;;;12.39;52.05;102311.66;4921801;29;20056;-72
2022/03/28 06:59:38;;;;;;;20.50;7.88;;;;;;;12.56;52.63;102313.44;4908244;29;20032;-72
2022/03/28 07:02:24;;;;;;;22.40;8.02;;;;;;;12.73;52.33;102308.13;4922339;29;20386;-72
2022/03/28 07:05:11;;;;;;;15.90;7.80;;;;;;;13.00;52.20;102305.50;4922707;29;20023;-72
2022/03/28 07:07:57;;;;;;;15.85;8.05;;;;;;;13.06;52.11;102300.25;4922163;29;20517;-72
2022/03/28 07:10:43;;;;;;;15.27;8.32;;;;;;;13.42;51.90;102298.34;4921897;29;20071;-71
2022/03/28 07:13:30;;;;;;;19.20;8.32;;;;;;;13.88;51.39;102305.16;4921913;29;20063;-72
2022/03/28 07:16:16;;;;;;;17.98;9.13;;;;;;;13.57;53.60;102300.03;4922296;28;20453;-72
2022/03/28 07:19:03;;;;;;;18.50;8.25;;;;;;;13.42;53.27;102308.03;4922225;29;20457;-72
2022/03/28 07:21:48;;;;;;;17.10;8.50;;;;;;;13.89;52.92;102308.66;4920821;29;20024;-72
2022/03/28 07:24:34;;;;;;;18.52;7.38;;;;;;;13.68;52.78;102309.66;4921682;29;20031;-71
2022/03/28 07:27:20;;;;;;;17.88;7.50;;;;;;;14.03;51.91;102314.72;4922066;28;20045;-72
2022/03/28 07:30:08;;;;;;;17.13;7.85;;;;;;;14.70;50.36;102306.31;4921694;29;20036;-73
2022/03/28 07:32:54;;;;;;;21.38;9.88;;;;;;;14.63;49.89;102304.63;4922039;28;20381;-72
2022/03/28 07:35:41;;;;;;;19.73;8.13;;;;;;;14.86;50.73;102301.75;4922068;28;20103;-72
2022/03/28 07:38:27;;;;;;;19.67;8.20;;;;;;;14.64;50.21;102297.59;4907611;29;20028;-71
2022/03/28 07:41:15;;;;;;;17.65;7.60;;;;;;;14.82;48.73;102302.69;4921771;28;20508;-72
2022/03/28 07:44:01;;;;;;;16.58;8.20;;;;;;;14.76;48.48;102298.34;4921575;29;20032;-73
2022/03/28 07:46:47;;;;;;;16.55;7.63;;;;;;;14.71;48.52;102289.59;4920638;29;20115;-73
2022/03/28 07:49:34;;;;;;;19.45;8.10;;;;;;;14.76;48.30;102286.94;4907759;29;20044;-71
2022/03/28 07:52:21;;;;;;;20.50;8.35;;;;;;;15.26;47.63;102291.66;4921940;28;20370;-72
2022/03/28 07:55:08;;;;;;;24.75;7.93;;;;;;;15.04;48.30;102292.78;4921659;29;20050;-71
2022/03/28 07:57:54;;;;;;;18.45;8.80;;;;;;;15.26;47.82;102289.88;4920456;29;20035;-72
2022/03/28 08:00:40;;;;;;;15.88;8.50;;;;;;;15.05;48.30;102279.56;4907278;29;20562;-72
2022/03/28 08:03:26;;;;;;;16.33;8.20;;;;;;;15.43;47.79;102279.16;4920247;29;20441;-73
2022/03/28 08:06:12;;;;;;;16.83;8.68;;;;;;;15.72;47.65;102280.53;4920298;29;20111;-71
2022/03/28 08:08:58;;;;;;;23.10;10.48;;;;;;;15.45;47.28;102278.25;4921596;28;20063;-71
2022/03/28 08:11:44;;;;;;;15.25;9.68;;;;;;;16.13;46.61;102274.63;4921108;29;20020;-71
2022/03/28 08:14:30;;;;;;;19.80;9.32;;;;;;;16.11;48.16;102277.28;4919969;29;20469;-71
2022/03/28 08:17:18;;;;;;;21.50;9.00;;;;;;;16.55;47.96;102266.03;4906613;29;20043;-70
2022/03/28 08:20:06;;;;;;;20.80;9.82;;;;;;;16.34;47.85;102269.00;4921109;29;20035;-72
2022/03/28 08:22:54;;;;;;;16.17;9.32;;;;;;;16.57;48.23;102269.53;4920790;28;20442;-72
2022/03/28 08:25:39;;;;;;;22.20;10.30;;;;;;;17.20;47.15;102260.38;4921129;28;20028;-72
2022/03/28 08:28:26;;;;;;;14.02;8.80;;;;;;;17.33;46.66;102260.06;4919670;29;20131;-72
2022/03/28 08:31:12;;;;;;;15.60;9.63;;;;;;;17.44;46.24;102255.47;4920829;28;20032;-72
2022/03/28 08:33:58;;;;;;;14.02;8.88;;;;;;;17.22;46.88;102255.91;4920884;28;20123;-73
2022/03/28 08:36:44;;;;;;;15.55;9.30;;;;;;;17.76;45.38;102246.81;4921031;28;20032;-74
2022/03/28 08:39:30;;;;;;;17.35;8.82;;;;;;;17.56;44.98;102249.91;4920351;29;20091;-75
2022/03/28 08:42:17;;;;;;;19.42;9.70;;;;;;;17.40;45.03;102244.94;4919948;29;20095;-71
2022/03/28 08:45:03;;;;;;;20.48;10.02;;;;;;;17.86;44.38;102245.69;4920366;29;20120;-72
2022/03/28 08:47:49;;;;;;;18.75;8.88;;;;;;;17.73;44.32;102236.28;4929109;29;20517;-72
2022/03/28 08:50:36;;;;;;;15.93;8.68;;;;;;;17.74;44.60;102232.72;4921502;28;20414;-72
2022/03/28 08:53:22;;;;;;;15.40;9.13;;;;;;;18.51;42.82;102221.97;4920745;29;20023;-72
2022/03/28 08:56:08;;;;;;;19.17;9.60;;;;;;;18.30;42.68;102226.94;4906480;29;20033;-71
2022/03/28 08:58:53;;;;;;;17.67;9.68;;;;;;;18.04;43.56;102218.72;4906666;29;20031;-72
2022/03/28 09:01:39;;;;;;;15.07;8.85;;;;;;;18.12;44.07;102214.09;4919288;29;20043;-71
2022/03/28 09:04:25;;;;;;;15.70;9.75;;;;;;;18.74;42.59;102216.03;4918961;29;20039;-72
2022/03/28 09:07:11;;;;;;;17.35;9.77;;;;;;;18.87;42.70;102209.47;4906507;29;20042;-72
2022/03/28 09:09:58;;;;;;;14.23;9.80;;;;;;;18.67;42.60;102202.06;4919563;29;20140;-72
2022/03/28 09:13:05;;;;;;;16.50;9.13;;;;;;;18.73;42.51;102199.22;4919893;29;20028;-73
2022/03/28 09:15:55;;;;;;;13.45;9.07;;;;;;;18.70;42.68;102196.66;4920004;28;20040;-72
2022/03/28 09:18:43;;;;;;;13.63;9.32;;;;;;;18.63;42.83;102194.22;4919673;29;20028;-72
2022/03/28 09:21:29;;;;;;;21.27;9.25;;;;;;;18.22;43.80;102187.31;4919003;29;20024;-71
2022/03/28 09:24:15;;;;;;;19.75;9.65;;;;;;;18.58;43.69;102188.16;4920006;28;20040;-72
2022/03/28 09:27:20;;;;;;;13.70;8.68;;;;;;;18.27;44.13;102176.56;4918989;29;20035;-73
2022/03/28 09:30:10;;;;;;;17.65;9.65;;;;;;;18.75;43.63;102177.94;4906841;29;20028;-73
2022/03/28 09:32:56;;;;;;;14.90;9.43;;;;;;;18.48;44.35;102171.63;4918029;29;20032;-72
2022/03/28 09:35:46;;;;;;;19.85;10.30;;;;;;;18.68;43.81;102171.94;4919643;29;20351;-71
2022/03/28 09:38:34;;;;;;;18.58;10.00;;;;;;;18.66;44.36;102162.28;4905142;29;20446;-72
2022/03/28 09:41:23;;;;;;;18.65;11.00;;;;;;;18.55;44.89;102159.03;4919866;29;20024;-72
2022/03/28 09:44:09;;;;;;;21.95;12.27;;;;;;;18.73;44.75;102161.22;4919047;29;20119;-72
2022/03/28 09:47:04;;;;;;;16.90;10.70;;;;;;;18.53;45.09;102153.78;4918739;29;20035;-72
2022/03/28 09:49:57;;;;;;;22.10;11.20;;;;;;;17.81;46.56;102145.03;4919416;29;20036;-72
2022/03/28 09:52:43;;;;;;;17.80;10.43;;;;;;;18.39;44.97;102150.63;4918438;29;20042;-73
2022/03/28 09:55:53;;;;;;;18.77;10.25;;;;;;;18.35;45.08;102138.34;4918058;29;20048;-71
2022/03/28 09:58:58;;;;;;;15.07;9.90;;;;;;;18.56;44.48;102139.53;4904444;29;20060;-71
2022/03/28 10:01:44;;;;;;;17.17;10.05;;;;;;;18.63;44.08;102135.81;4906016;28;20028;-71
2022/03/28 10:04:34;;;;;;;15.32;10.25;;;;;;;19.08;43.64;102137.13;4918430;29;20119;-72
2022/03/28 10:07:21;;;;;;;16.15;10.60;;;;;;;19.01;43.30;102131.13;4919319;29;20090;-70
2022/03/28 10:10:07;;;;;;;20.58;10.60;;;;;;;18.43;43.98;102127.53;4918505;29;20461;-70
2022/03/28 10:12:53;;;;;;;17.05;10.90;;;;;;;18.35;43.94;102124.22;4904555;29;20374;-71
2022/03/28 10:15:39;;;;;;;22.27;11.32;;;;;;;19.19;43.07;102124.41;4918571;29;20048;-71
2022/03/28 10:18:36;;;;;;;16.23;10.32;;;;;;;19.14;42.66;102129.84;4918596;29;20028;-70
2022/03/28 10:21:24;;;;;;;21.15;11.15;;;;;;;19.13;43.03;102119.28;4918455;29;20046;-70
2022/03/28 10:24:19;;;;;;;17.23;10.68;;;;;;;18.90;43.13;102121.75;4918551;29;20043;-71
2022/03/28 10:27:05;;;;;;;23.48;10.48;;;;;;;19.17;42.55;102118.28;4905288;29;20024;-70
2022/03/28 10:29:53;;;;;;;18.60;11.07;;;;;;;19.06;42.83;102120.38;4919255;29;20111;-71
2022/03/28 10:32:39;;;;;;;15.65;10.07;;;;;;;19.52;42.10;102112.75;4904469;29;20114;-71
2022/03/28 10:35:25;;;;;;;15.73;10.80;;;;;;;19.34;41.87;102109.78;4919346;29;20153;-70
2022/03/28 10:38:18;;;;;;;19.52;11.10;;;;;;;19.36;42.65;102102.66;4918293;29;20028;-69
2022/03/28 10:41:05;;;;;;;21.27;11.32;;;;;;;19.29;42.65;102101.94;4918328;29;20111;-70
2022/03/28 10:43:51;;;;;;;18.05;11.30;;;;;;;19.45;42.70;102092.56;4905001;29;20032;-69
2022/03/28 10:46:36;;;;;;;17.52;11.15;;;;;;;19.18;42.56;102094.28;4918853;29;20373;-68
2022/03/28 10:49:24;;;;;;;18.63;11.02;;;;;;;19.94;42.08;102083.84;4919111;29;20035;-69
2022/03/28 10:52:13;;;;;;;20.02;10.70;;;;;;;19.86;41.61;102085.91;4904216;29;20020;-68
2022/03/28 10:55:06;;;;;;;17.92;10.75;;;;;;;19.14;42.49;102083.81;4918334;29;20035;-69
2022/03/28 10:57:51;;;;;;;19.10;10.65;;;;;;;18.82;43.54;102074.16;4918105;29;20096;-71
2022/03/28 11:00:37;;;;;;;18.17;10.70;;;;;;;19.32;42.90;102064.66;4919347;29;20040;-70
2022/03/28 11:03:35;;;;;;;15.27;10.82;;;;;;;19.64;42.20;102056.50;4918482;29;20055;-71
2022/03/28 11:07:00;;;;;;;16.95;11.02;;;;;;;19.89;42.25;102052.06;4920506;29;20030;-70
2022/03/28 11:09:58;;;;;;;17.92;11.02;;;;;;;20.32;41.97;102047.00;4921916;29;20036;-70
2022/03/28 11:12:45;;;;;;;18.83;11.23;;;;;;;20.08;42.04;102037.22;4924293;29;20060;-70
2022/03/28 11:15:40;;;;;;;17.80;11.68;;;;;;;19.81;41.87;102034.66;4911611;29;20043;-70
2022/03/28 11:18:29;;;;;;;19.25;11.82;;;;;;;20.19;41.74;102021.78;4912681;29;20188;-71
2022/03/28 11:21:25;;;;;;;19.35;11.57;;;;;;;20.67;40.74;102021.72;4907826;29;20035;-72
2022/03/28 11:24:11;;;;;;;20.55;11.63;;;;;;;21.09;40.40;102012.94;4907633;29;20040;-71
2022/03/28 11:26:58;;;;;;;17.42;11.15;;;;;;;20.46;41.14;102007.44;4921667;29;20028;-72
2022/03/28 11:29:46;;;;;;;16.48;11.18;;;;;;;20.97;40.67;102004.59;4921868;29;20469;-73
2022/03/28 11:32:35;;;;;;;16.55;11.30;;;;;;;21.14;40.36;101991.44;4921858;29;20035;-71
2022/03/28 11:35:22;;;;;;;15.00;11.60;;;;;;;20.91;40.36;101988.81;4921331;29;20354;-71
2022/03/28 11:38:09;;;;;;;20.90;11.50;;;;;;;21.40;40.08;101985.91;4907512;29;20029;-72
2022/03/28 11:40:56;;;;;;;22.92;11.80;;;;;;;20.88;41.06;101984.47;4922728;29;20021;-71
2022/03/28 11:43:54;;;;;;;21.30;12.13;;;;;;;20.40;40.75;101975.72;4923191;29;20067;-72
2022/03/28 11:46:40;;;;;;;17.75;11.40;;;;;;;21.13;40.15;101963.06;4922285;29;20043;-71
2022/03/28 11:49:26;;;;;;;20.58;12.18;;;;;;;20.47;40.64;101966.56;4921619;29;20115;-71
2022/03/28 11:52:12;;;;;;;17.17;11.65;;;;;;;20.97;40.07;101952.16;4922289;29;20059;-71
2022/03/28 11:55:24;;;;;;;16.83;11.77;;;;;;;21.36;39.54;101949.63;4921832;29;20043;-72
2022/03/28 11:58:16;;;;;;;18.98;11.82;;;;;;;21.38;39.34;101943.28;4923598;29;20115;-72
2022/03/28 12:01:09;;;;;;;18.55;13.60;;;;;;;20.68;40.21;101927.56;4922255;29;20449;-72
2022/03/28 12:03:54;;;;;;;20.27;12.43;;;;;;;20.74;40.01;101920.19;4907094;29;20035;-72
2022/03/28 12:07:13;;;;;;;18.90;12.70;;;;;;;20.30;41.44;101910.44;4920965;29;20024;-73
2022/03/28 12:09:59;;;;;;;19.38;11.60;;;;;;;21.37;40.36;101912.22;4895651;29;20040;-72
2022/03/28 12:12:45;;;;;;;24.75;16.45;;;;;;;21.07;40.28;101905.53;4921372;29;20036;-70
2022/03/28 12:15:34;;;;;;;24.15;14.38;;;;;;;21.83;39.45;101903.13;4920122;29;20056;-70
2022/03/28 12:18:22;;;;;;;22.52;13.98;;;;;;;21.85;39.26;101895.88;4919454;29;20432;-71
2022/03/28 12:21:08;;;;;;;22.27;13.30;;;;;;;22.20;38.50;101882.66;4906720;29;20410;-71
2022/03/28 12:24:09;;;;;;;19.23;13.15;;;;;;;21.60;39.27;101877.44;4906653;29;20032;-71
2022/03/28 12:26:59;;;;;;;19.77;13.43;;;;;;;21.77;39.62;101876.69;4906488;29;20114;-71
2022/03/28 12:29:45;;;;;;;30.10;17.88;;;;;;;21.93;39.00;101872.38;4920360;29;20430;-71
2022/03/28 12:32:32;;;;;;;23.60;14.27;;;;;;;21.64;39.18;101875.47;4920319;29;20463;-70
2022/03/28 12:35:20;;;;;;;23.27;14.50;;;;;;;21.84;38.59;101872.81;4920068;29;20064;-71
2022/03/28 12:38:08;;;;;;;25.90;13.65;;;;;;;21.56;38.98;101862.50;4906206;29;20063;-71
2022/03/28 12:40:58;;;;;;;23.52;13.48;;;;;;;21.67;38.75;101859.34;4919717;29;20039;-71
2022/03/28 12:43:49;;;;;;;22.52;13.63;;;;;;;21.64;38.48;101854.13;4920279;29;20084;-72
2022/03/28 12:46:36;;;;;;;20.50;13.30;;;;;;;21.34;38.49;101851.03;4919675;29;20102;-70
2022/03/28 12:49:25;;;;;;;29.30;12.95;;;;;;;21.71;37.37;101848.50;4920539;29;20070;-72